Time;durP1;ratioP1;P1;durP2;ratioP2;P2;SDS_P1;SDS_P2;PMS_P1;PMS_P2;Temp;Humidity;BMP_temperature;BMP_pressure;BME280_temperature;BME280_humidity;BME280_pressure;Samples;Min_cycle;Max_cycle;Signal;HPM_P1;HPM_P2
2021/01/20 00:02:10;;;;;;;13.55;6.50;;;7.60;99.90;;;;;;4910516;29;20028;-73
2021/01/20 00:04:35;;;;;;;13.52;5.93;;;7.60;99.90;;;;;;4910264;29;20036;-71
2021/01/20 00:07:01;;;;;;;10.73;5.22;;;7.60;99.90;;;;;;4910254;29;20047;-73
2021/01/20 00:09:26;;;;;;;11.05;5.35;;;7.60;99.90;;;;;;4910535;29;20474;-73
2021/01/20 00:11:52;;;;;;;13.38;6.97;;;7.60;99.90;;;;;;4910019;29;20115;-72
2021/01/20 00:14:18;;;;;;;9.38;4.82;;;7.50;99.90;;;;;;4910253;29;20052;-71
2021/01/20 00:16:44;;;;;;;11.10;5.78;;;7.50;99.90;;;;;;4910384;29;20069;-74
2021/01/20 08:00:09;;;;;;;6.93;3.80;;;6.90;99.90;;;;;;5355108;23;20079;-73
2021/01/20 08:02:49;;;;;;;6.03;3.42;;;6.90;99.90;;;;;;4914203;29;20124;-75
2021/01/20 08:05:15;;;;;;;5.53;2.72;;;7.00;99.90;;;;;;4925501;29;20039;-69
2021/01/20 08:07:40;;;;;;;10.27;4.22;;;7.00;99.90;;;;;;4928671;29;20020;-73
2021/01/20 08:10:19;;;;;;;7.47;3.55;;;7.00;99.90;;;;;;4910166;29;20036;-73
2021/01/20 08:12:46;;;;;;;8.45;3.50;;;7.10;99.90;;;;;;4907586;29;20473;-73
2021/01/20 08:15:14;;;;;;;7.47;2.80;;;7.10;99.90;;;;;;4910201;29;20048;-72
2021/01/20 08:17:41;;;;;;;5.65;3.00;;;7.10;99.90;;;;;;4910344;29;20028;-72
2021/01/20 08:20:09;;;;;;;6.07;3.13;;;7.20;99.90;;;;;;4928241;29;20107;-73
2021/01/20 08:22:35;;;;;;;7.43;3.70;;;7.20;99.90;;;;;;4929312;29;20035;-73
2021/01/20 08:25:00;;;;;;;12.25;3.13;;;7.20;99.90;;;;;;4911933;29;20055;-73
2021/01/20 08:27:34;;;;;;;7.45;3.65;;;7.30;99.90;;;;;;4928811;29;20028;-73
2021/01/20 08:30:00;;;;;;;8.98;3.20;;;7.30;99.90;;;;;;4912223;29;20499;-74
2021/01/20 08:32:26;;;;;;;6.65;3.47;;;7.30;99.90;;;;;;4929124;29;20457;-72
2021/01/20 08:34:53;;;;;;;7.30;3.63;;;7.30;99.90;;;;;;4929081;29;20043;-74
2021/01/20 08:37:31;;;;;;;12.43;3.45;;;7.40;99.90;;;;;;4928362;29;20028;-74
2021/01/20 08:39:58;;;;;;;5.93;2.67;;;7.40;99.90;;;;;;4929119;29;20067;-74
2021/01/20 08:42:45;;;;;;;9.85;3.10;;;7.50;99.90;;;;;;4928556;29;20056;-78
2021/01/20 08:45:19;;;;;;;9.75;3.70;;;7.50;99.90;;;;;;4929023;29;20079;-74
2021/01/20 08:47:55;;;;;;;5.75;2.75;;;7.50;99.90;;;;;;4928888;29;20450;-76
2021/01/20 08:50:27;;;;;;;4.68;2.35;;;7.50;99.90;;;;;;4927304;29;20032;-75
2021/01/20 08:52:55;;;;;;;8.63;2.97;;;7.50;99.90;;;;;;4928906;29;20092;-73
2021/01/20 08:55:36;;;;;;;5.80;2.13;;;7.60;99.90;;;;;;4911447;29;20048;-70
2021/01/20 08:58:18;;;;;;;4.57;2.42;;;7.60;99.90;;;;;;4928898;29;20047;-73
2021/01/20 09:00:45;;;;;;;5.07;2.53;;;7.60;99.90;;;;;;4911971;29;20076;-74
2021/01/20 09:03:17;;;;;;;7.35;2.70;;;7.70;99.90;;;;;;4909710;29;20089;-73
2021/01/20 09:05:44;;;;;;;4.85;1.90;;;7.70;99.90;;;;;;4909304;29;20021;-77
2021/01/20 09:08:10;;;;;;;6.60;3.40;;;7.70;99.90;;;;;;4908924;29;20048;-73
2021/01/20 09:10:35;;;;;;;2.00;1.40;;;7.70;99.90;;;;;;4905089;29;20624;-70
2021/01/20 09:13:01;;;;;;;6.35;2.88;;;7.80;99.90;;;;;;4907834;29;20083;-74
2021/01/20 09:15:28;;;;;;;2.40;1.90;;;7.80;99.90;;;;;;4908819;29;20504;-74
2021/01/20 09:17:53;;;;;;;4.90;2.25;;;7.80;99.90;;;;;;4892060;29;20035;-73
2021/01/20 09:20:19;;;;;;;5.22;2.47;;;7.90;99.90;;;;;;4909135;29;20080;-73
2021/01/20 09:22:46;;;;;;;4.55;1.88;;;7.90;99.90;;;;;;4891916;29;20035;-73
2021/01/20 09:25:12;;;;;;;3.35;2.03;;;7.90;99.90;;;;;;4908807;29;20413;-74
2021/01/20 09:27:38;;;;;;;3.60;2.10;;;8.00;99.90;;;;;;4907377;29;20029;-70
2021/01/20 09:30:05;;;;;;;6.20;2.97;;;8.00;99.90;;;;;;4907644;29;20028;-74
2021/01/20 09:32:38;;;;;;;3.00;2.20;;;8.00;99.90;;;;;;4911157;29;20568;-72
2021/01/20 09:35:08;;;;;;;6.55;2.33;;;8.00;99.90;;;;;;4893448;29;20046;-75
2021/01/20 09:37:33;;;;;;;5.35;2.15;;;8.00;99.90;;;;;;4915874;29;20512;-75
2021/01/20 09:39:59;;;;;;;5.93;2.42;;;8.00;99.90;;;;;;4892122;29;20033;-75
2021/01/20 09:42:25;;;;;;;1.88;1.13;;;8.00;99.90;;;;;;4916094;29;20455;-76
2021/01/20 09:44:51;;;;;;;3.33;2.42;;;8.10;99.90;;;;;;4915307;29;20032;-74
2021/01/20 09:47:17;;;;;;;6.05;2.22;;;8.10;99.90;;;;;;4920974;29;20044;-74
2021/01/20 09:49:43;;;;;;;3.80;1.85;;;8.10;99.90;;;;;;4919350;29;20056;-74
2021/01/20 09:52:10;;;;;;;2.38;1.48;;;8.20;99.90;;;;;;4927423;29;20142;-74
2021/01/20 09:54:36;;;;;;;3.30;1.55;;;8.20;99.90;;;;;;4927781;29;20104;-73
2021/01/20 09:57:02;;;;;;;5.25;2.25;;;8.20;99.90;;;;;;4927610;29;20066;-75
2021/01/20 09:59:28;;;;;;;5.05;2.35;;;8.20;99.90;;;;;;4921398;29;20020;-76
2021/01/20 10:01:53;;;;;;;3.90;1.80;;;8.20;99.90;;;;;;4918037;29;20060;-75
2021/01/20 10:04:19;;;;;;;3.25;1.20;;;8.20;99.90;;;;;;4918040;29;20051;-75
2021/01/20 10:06:44;;;;;;;6.47;1.88;;;8.20;99.90;;;;;;4907570;29;20035;-74
2021/01/20 10:09:10;;;;;;;3.92;2.00;;;8.20;99.90;;;;;;4908880;29;20032;-71
2021/01/20 10:11:35;;;;;;;17.27;4.95;;;8.20;99.90;;;;;;4906633;29;20020;-75
2021/01/20 10:14:01;;;;;;;3.03;1.75;;;8.20;99.90;;;;;;4908521;29;20131;-73
2021/01/20 10:16:26;;;;;;;4.10;2.28;;;8.20;99.90;;;;;;4911247;29;20494;-72
2021/01/20 10:18:52;;;;;;;5.85;2.25;;;8.20;99.90;;;;;;4912859;29;20029;-74
2021/01/20 10:21:18;;;;;;;4.63;1.90;;;8.30;99.90;;;;;;4912478;29;20358;-74
2021/01/20 10:23:44;;;;;;;3.40;1.70;;;8.30;99.90;;;;;;4912764;29;20044;-73
2021/01/20 10:26:09;;;;;;;3.90;2.33;;;8.30;99.90;;;;;;4912340;29;20037;-75
2021/01/20 10:28:35;;;;;;;4.10;1.88;;;8.40;99.90;;;;;;4912281;29;20088;-74
2021/01/20 10:31:00;;;;;;;2.05;1.35;;;8.40;99.90;;;;;;4912384;29;20040;-75
2021/01/20 10:33:26;;;;;;;2.35;1.40;;;8.40;99.90;;;;;;4912233;29;20024;-73
2021/01/20 10:35:52;;;;;;;2.15;1.33;;;8.50;99.90;;;;;;4912479;29;20104;-77
2021/01/20 10:38:20;;;;;;;3.58;1.85;;;8.50;99.90;;;;;;4923713;29;20036;-71
2021/01/20 10:40:45;;;;;;;6.28;2.13;;;8.70;99.90;;;;;;4926606;29;20020;-78
2021/01/20 10:43:11;;;;;;;3.40;1.98;;;8.70;99.90;;;;;;4912981;29;20033;-75
2021/01/20 10:45:37;;;;;;;2.90;1.55;;;8.70;99.90;;;;;;4910329;29;20035;-76
2021/01/20 10:48:02;;;;;;;4.82;1.85;;;8.70;99.90;;;;;;4923094;29;20028;-75
2021/01/20 10:50:28;;;;;;;4.78;1.90;;;8.70;99.90;;;;;;4922144;29;20452;-75
2021/01/20 10:52:54;;;;;;;2.97;1.83;;;8.70;99.90;;;;;;4911701;29;20076;-75
2021/01/20 10:55:19;;;;;;;2.53;1.65;;;8.70;99.90;;;;;;4903994;29;20043;-75
2021/01/20 10:57:45;;;;;;;5.03;2.45;;;8.80;99.90;;;;;;4912338;29;20084;-74
2021/01/20 11:00:11;;;;;;;2.15;1.63;;;8.80;99.90;;;;;;4921798;29;20449;-74
2021/01/20 11:02:36;;;;;;;4.03;1.60;;;8.80;99.90;;;;;;4913471;29;20040;-74
2021/01/20 11:05:02;;;;;;;4.25;2.28;;;8.80;99.90;;;;;;4927070;29;20027;-75
2021/01/20 11:07:27;;;;;;;4.55;2.00;;;8.80;99.90;;;;;;4911527;29;20748;-75
2021/01/20 11:09:56;;;;;;;4.25;2.53;;;8.80;99.90;;;;;;4894764;29;20048;-76
2021/01/20 11:12:21;;;;;;;2.72;1.75;;;8.90;99.90;;;;;;4911899;29;20081;-73
2021/01/20 11:14:47;;;;;;;3.15;2.10;;;8.90;99.90;;;;;;4911580;29;20051;-74
2021/01/20 11:17:13;;;;;;;2.53;1.63;;;9.00;99.90;;;;;;4908667;29;20060;-75
2021/01/20 11:19:38;;;;;;;5.43;1.88;;;9.10;99.90;;;;;;4911131;29;20472;-74
2021/01/20 11:22:04;;;;;;;3.67;2.03;;;9.10;99.90;;;;;;4893381;29;20032;-74
2021/01/20 11:24:29;;;;;;;3.92;2.28;;;9.20;99.90;;;;;;4910582;29;20037;-74
2021/01/20 11:26:55;;;;;;;4.45;2.83;;;9.20;99.90;;;;;;4892860;29;20048;-73
2021/01/20 11:29:22;;;;;;;5.97;2.25;;;9.20;99.90;;;;;;4892836;29;20028;-75
2021/01/20 11:31:50;;;;;;;2.60;1.70;;;9.20;99.90;;;;;;4910508;29;20044;-73
2021/01/20 11:34:16;;;;;;;5.38;1.88;;;9.30;99.90;;;;;;4909760;29;20072;-74
2021/01/20 11:36:41;;;;;;;3.60;2.15;;;9.30;99.90;;;;;;4908869;29;20115;-73
2021/01/20 11:39:07;;;;;;;2.08;1.73;;;9.30;99.90;;;;;;4910438;29;20033;-74
2021/01/20 11:41:32;;;;;;;4.25;1.67;;;9.40;99.90;;;;;;4909612;29;20029;-72
2021/01/20 11:43:58;;;;;;;4.80;2.08;;;9.30;99.90;;;;;;4910272;29;20465;-75
2021/01/20 11:46:24;;;;;;;4.50;1.60;;;9.30;99.90;;;;;;4910522;29;20032;-76
2021/01/20 11:48:50;;;;;;;2.47;1.75;;;9.30;99.90;;;;;;4909311;29;20032;-72
2021/01/20 11:51:15;;;;;;;3.30;1.60;;;9.30;99.90;;;;;;4910523;29;20032;-75
2021/01/20 11:53:41;;;;;;;2.83;1.90;;;9.30;99.90;;;;;;4910139;29;20349;-75
2021/01/20 11:56:07;;;;;;;2.17;1.90;;;9.30;99.90;;;;;;4892790;29;20024;-76
2021/01/20 11:58:32;;;;;;;2.33;1.70;;;9.30;99.90;;;;;;4910138;29;20088;-74
2021/01/20 12:00:58;;;;;;;2.03;1.27;;;9.30;99.90;;;;;;4889113;29;20083;-74
2021/01/20 12:03:24;;;;;;;16.40;2.10;;;9.30;99.90;;;;;;4890993;29;20089;-76
2021/01/20 12:05:53;;;;;;;4.18;2.42;;;9.30;99.90;;;;;;4891312;29;20037;-76
2021/01/20 12:08:19;;;;;;;2.00;1.65;;;9.30;99.90;;;;;;4891290;29;20060;-74
2021/01/20 12:10:46;;;;;;;4.22;1.75;;;9.30;99.90;;;;;;4889692;29;20056;-75
2021/01/20 12:13:12;;;;;;;7.25;1.90;;;9.30;99.90;;;;;;4891053;29;20081;-73
2021/01/20 12:15:38;;;;;;;3.20;1.83;;;9.40;99.90;;;;;;4890865;29;20040;-74
2021/01/20 12:18:05;;;;;;;7.18;1.70;;;9.40;99.90;;;;;;4904841;29;20054;-74
2021/01/20 12:20:31;;;;;;;2.22;1.42;;;9.50;99.90;;;;;;4891068;29;20033;-74
2021/01/20 12:22:57;;;;;;;2.45;1.20;;;9.50;99.90;;;;;;4890776;29;20762;-72
2021/01/20 12:25:22;;;;;;;2.45;1.25;;;9.60;99.90;;;;;;4889389;29;20096;-76
2021/01/20 12:27:48;;;;;;;2.78;1.42;;;9.60;99.90;;;;;;4890934;29;20033;-74
2021/01/20 12:30:14;;;;;;;1.40;0.93;;;9.70;99.90;;;;;;4890567;29;20040;-73
2021/01/20 12:32:40;;;;;;;2.55;1.40;;;9.90;99.90;;;;;;4890815;29;20037;-74
2021/01/20 12:35:06;;;;;;;1.77;1.05;;;10.00;99.90;;;;;;4889220;29;20044;-74
2021/01/20 12:37:31;;;;;;;2.83;1.65;;;10.10;99.90;;;;;;4890346;29;20132;-74
2021/01/20 12:39:57;;;;;;;4.90;1.40;;;10.20;99.90;;;;;;4890308;29;20085;-75
2021/01/20 12:42:22;;;;;;;2.92;1.63;;;10.30;99.90;;;;;;4890584;29;20029;-77
2021/01/20 12:44:48;;;;;;;3.10;1.30;;;10.60;99.90;;;;;;4890383;29;20144;-75
2021/01/20 12:47:14;;;;;;;1.50;0.90;;;11.10;99.90;;;;;;4890256;29;20537;-75
2021/01/20 12:49:40;;;;;;;4.95;0.90;;;;;;;;;;4890357;29;20107;-75
2021/01/20 12:52:06;;;;;;;1.63;0.90;;;;;;;;;;4888736;29;20032;-73
2021/01/20 12:54:32;;;;;;;3.15;1.33;;;;;;;;;;4890079;29;20036;-75
2021/01/20 12:56:58;;;;;;;1.05;0.88;;;;;;;;;;4890141;29;20401;-72
2021/01/20 12:59:24;;;;;;;1.60;0.95;;;;;;;;;;4889528;29;20053;-75
2021/01/20 13:01:50;;;;;;;1.70;0.60;;;;;;;;;;4905498;29;20048;-75
2021/01/20 13:04:16;;;;;;;1.67;0.88;;;;;;;;;;4891614;29;20049;-78
2021/01/20 13:06:46;;;;;;;3.72;0.55;;;;;;;;;;4891737;29;20044;-74
2021/01/20 13:09:12;;;;;;;2.15;1.05;;;;;;;;;;4892032;29;20059;-73
2021/01/20 13:11:38;;;;;;;2.88;0.73;;;;;;;;;;4908429;29;20033;-74
2021/01/20 13:14:04;;;;;;;1.25;0.68;;;;;;;;;;4908269;29;20088;-75
2021/01/20 13:16:30;;;;;;;1.45;0.77;;;;;;;;;;4908479;29;20061;-74
2021/01/20 13:18:56;;;;;;;0.82;0.80;;;;;;;;;;4908328;29;20036;-74
2021/01/20 13:21:22;;;;;;;1.40;0.90;;;;;;;;;;4908327;29;20037;-75
2021/01/20 13:23:48;;;;;;;3.22;1.23;;;;;;;;;;4908628;29;20043;-74
2021/01/20 13:26:16;;;;;;;3.70;1.20;;;;;;;;;;4891412;29;20028;-74
2021/01/20 13:28:42;;;;;;;2.92;1.33;;;;;;;;;;4891436;29;20405;-74
2021/01/20 13:31:08;;;;;;;1.73;0.90;;;;;;;;;;4908159;29;20068;-74
2021/01/20 13:33:34;;;;;;;2.28;1.23;;;;;;;;;;4891115;29;20461;-75
2021/01/20 13:36:00;;;;;;;3.42;1.42;;;;;;;;;;4908552;29;20028;-74
2021/01/20 13:38:26;;;;;;;3.72;0.80;;;;;;;;;;4908517;29;20039;-74
2021/01/20 13:40:52;;;;;;;0.95;0.93;;;;;;;;;;4908300;29;20035;-73
2021/01/20 13:43:19;;;;;;;1.65;1.17;;;;;;;;;;4908497;29;20032;-73
2021/01/20 13:45:45;;;;;;;1.25;0.90;;;;;;;;;;4908578;29;20068;-72
2021/01/20 13:48:11;;;;;;;2.10;0.88;;;;;;;;;;4906839;29;20037;-71
2021/01/20 13:50:37;;;;;;;1.65;0.95;;;;;;;;;;4918416;29;20060;-72
2021/01/20 13:53:04;;;;;;;1.35;0.85;;;;;;;;;;4907932;29;20037;-71
2021/01/20 13:55:31;;;;;;;6.00;1.08;;;;;;;;;;4894813;29;20067;-74
2021/01/20 13:57:57;;;;;;;1.20;0.73;;;;;;;;;;4927718;29;20028;-71
2021/01/20 14:00:23;;;;;;;3.38;0.80;;;;;;;;;;4922248;29;20083;-73
2021/01/20 14:02:50;;;;;;;3.28;1.33;;;;;;;;;;4908465;29;20039;-71
2021/01/20 14:05:18;;;;;;;3.42;1.73;;;11.50;99.90;;;;;;4908783;29;20089;-71
2021/01/20 14:07:45;;;;;;;2.88;1.33;;;11.60;99.90;;;;;;4910043;29;20040;-70
2021/01/20 14:10:11;;;;;;;1.45;0.80;;;11.60;99.90;;;;;;4917594;29;20039;-70
2021/01/20 14:12:36;;;;;;;1.05;0.70;;;11.60;99.90;;;;;;4927561;29;20036;-71
2021/01/20 14:15:03;;;;;;;1.27;0.80;;;11.50;99.90;;;;;;4927015;29;20048;-70
2021/01/20 14:17:28;;;;;;;1.20;0.80;;;11.50;99.90;;;;;;4926901;29;20032;-71
2021/01/20 14:19:56;;;;;;;1.35;0.65;;;11.50;99.90;;;;;;4927509;29;20039;-73
2021/01/20 14:22:23;;;;;;;1.95;1.13;;;11.50;99.90;;;;;;4910457;29;20025;-71
2021/01/20 14:24:49;;;;;;;3.33;1.20;;;11.40;99.90;;;;;;4908337;29;20025;-73
2021/01/20 14:27:16;;;;;;;1.42;0.65;;;11.40;99.90;;;;;;4925798;29;20515;-71
2021/01/20 14:29:42;;;;;;;1.38;0.93;;;11.30;99.90;;;;;;4920573;29;20475;-72
2021/01/20 14:32:08;;;;;;;3.40;1.10;;;11.20;99.90;;;;;;4910868;29;20075;-72
2021/01/20 14:34:34;;;;;;;4.07;0.90;;;11.10;99.90;;;;;;4907481;29;20095;-73
2021/01/20 14:37:02;;;;;;;1.55;0.93;;;11.00;99.90;;;;;;4909490;29;20037;-72
2021/01/20 14:39:27;;;;;;;6.20;1.23;;;10.90;99.90;;;;;;4914885;29;20032;-72
2021/01/20 14:41:53;;;;;;;0.85;0.60;;;10.80;99.90;;;;;;4918818;29;20053;-73
2021/01/20 14:44:19;;;;;;;1.95;0.93;;;10.70;99.90;;;;;;4913736;29;20038;-71
2021/01/20 14:46:46;;;;;;;1.10;0.93;;;10.60;99.90;;;;;;4911272;29;20096;-70
2021/01/20 14:49:13;;;;;;;1.23;0.95;;;10.60;99.90;;;;;;4908189;29;20484;-72
2021/01/20 14:51:39;;;;;;;1.02;0.85;;;10.50;99.90;;;;;;4916539;29;20047;-71
2021/01/20 14:54:04;;;;;;;1.23;0.65;;;10.40;99.90;;;;;;4907210;29;20041;-71
2021/01/20 14:56:30;;;;;;;2.40;1.25;;;10.40;99.90;;;;;;4907840;29;20037;-72
2021/01/20 14:58:56;;;;;;;2.17;0.68;;;10.40;99.90;;;;;;4907276;29;20037;-73
2021/01/20 15:01:21;;;;;;;2.00;0.90;;;10.30;99.90;;;;;;4906526;29;20112;-72
2021/01/20 15:03:47;;;;;;;1.30;0.68;;;10.30;99.90;;;;;;4911118;29;20093;-72
2021/01/20 15:06:12;;;;;;;1.90;1.00;;;10.30;99.90;;;;;;4911564;29;20111;-72
2021/01/20 15:08:38;;;;;;;5.38;1.25;;;10.20;99.90;;;;;;4910917;29;20039;-72
2021/01/20 15:11:04;;;;;;;2.97;0.88;;;10.20;99.90;;;;;;4909856;29;20032;-71
2021/01/20 15:13:29;;;;;;;1.83;0.82;;;10.10;99.90;;;;;;4925295;29;20036;-71
2021/01/20 15:15:55;;;;;;;2.17;1.20;;;10.10;99.90;;;;;;4911183;29;20037;-71
2021/01/20 15:18:20;;;;;;;1.40;0.98;;;10.00;99.90;;;;;;4911264;29;20048;-71
2021/01/20 15:20:54;;;;;;;3.10;1.55;;;9.90;99.90;;;;;;4911158;29;20338;-71
2021/01/20 15:23:22;;;;;;;2.22;0.93;;;9.90;99.90;;;;;;4911354;29;20036;-73
2021/01/20 15:25:48;;;;;;;2.20;1.13;;;9.90;99.90;;;;;;4911155;29;20380;-72
2021/01/20 15:28:13;;;;;;;2.75;1.20;;;9.90;99.90;;;;;;4910517;29;20037;-71
2021/01/20 15:30:39;;;;;;;3.53;1.42;;;9.90;99.90;;;;;;4910985;29;20099;-72
2021/01/20 15:33:05;;;;;;;2.80;0.80;;;9.80;99.90;;;;;;4908314;29;20822;-72
2021/01/20 15:35:30;;;;;;;8.70;1.08;;;9.80;99.90;;;;;;4909520;29;20082;-72
2021/01/20 15:37:56;;;;;;;3.35;1.05;;;9.80;99.90;;;;;;4908640;29;20194;-72
2021/01/20 15:40:21;;;;;;;1.10;0.82;;;9.80;99.90;;;;;;4910491;29;20040;-73
2021/01/20 15:42:47;;;;;;;2.67;0.85;;;9.80;99.90;;;;;;4910239;29;20057;-72
2021/01/20 15:45:13;;;;;;;5.07;0.93;;;9.80;99.90;;;;;;4910182;29;20024;-71
2021/01/20 15:47:39;;;;;;;2.78;0.82;;;9.80;99.90;;;;;;4909757;29;20029;-72
2021/01/20 15:50:05;;;;;;;2.78;1.25;;;9.80;99.90;;;;;;4909787;29;20039;-72
2021/01/20 15:52:30;;;;;;;1.20;0.70;;;9.70;99.90;;;;;;4909889;29;20037;-72
2021/01/20 15:54:56;;;;;;;1.20;0.93;;;9.70;99.90;;;;;;4909631;29;20051;-72
2021/01/20 15:57:21;;;;;;;6.85;2.42;;;9.70;99.90;;;;;;4910089;29;20033;-72
2021/01/20 15:59:47;;;;;;;5.03;1.00;;;9.60;99.90;;;;;;4909890;29;20024;-71
2021/01/20 16:02:13;;;;;;;13.65;2.38;;;9.60;99.90;;;;;;4907332;29;20045;-74
2021/01/20 16:04:40;;;;;;;7.13;2.63;;;9.50;99.90;;;;;;4908972;29;20048;-73
2021/01/20 16:07:06;;;;;;;4.60;2.20;;;9.50;99.90;;;;;;4909413;29;20033;-71
2021/01/20 16:09:31;;;;;;;3.03;1.95;;;9.50;99.90;;;;;;4908853;29;20061;-72
2021/01/20 16:11:57;;;;;;;2.75;1.10;;;9.50;99.90;;;;;;4910537;29;20108;-70
2021/01/20 16:14:22;;;;;;;2.22;1.20;;;9.50;99.90;;;;;;4910206;29;20048;-71
2021/01/20 16:16:48;;;;;;;3.72;1.73;;;9.50;99.90;;;;;;4910785;29;20028;-72
2021/01/20 16:19:14;;;;;;;5.68;1.42;;;9.50;99.90;;;;;;4910971;29;20108;-71
2021/01/20 16:21:40;;;;;;;2.47;1.52;;;9.50;99.90;;;;;;4910562;29;20029;-71
2021/01/20 16:24:05;;;;;;;2.15;1.20;;;9.40;99.90;;;;;;4910841;29;20060;-73
2021/01/20 16:26:31;;;;;;;2.90;1.35;;;9.40;99.90;;;;;;4910743;29;20123;-69
2021/01/20 16:28:57;;;;;;;6.28;0.85;;;9.40;99.90;;;;;;4909191;29;20048;-73
2021/01/20 16:31:22;;;;;;;4.20;1.55;;;9.50;99.90;;;;;;4910742;29;20052;-72
2021/01/20 16:33:48;;;;;;;2.10;1.20;;;9.40;99.90;;;;;;4910304;29;20049;-73
2021/01/20 16:36:14;;;;;;;5.30;1.73;;;9.40;99.90;;;;;;4910437;29;20029;-72
2021/01/20 16:38:40;;;;;;;2.05;1.25;;;9.40;99.90;;;;;;4910714;29;20033;-72
2021/01/20 16:41:06;;;;;;;5.72;1.60;;;9.40;99.90;;;;;;4910556;29;20083;-71
2021/01/20 16:43:32;;;;;;;1.90;1.08;;;9.40;99.90;;;;;;4909647;29;20754;-72
2021/01/20 16:45:59;;;;;;;4.72;1.23;;;9.30;99.90;;;;;;4909108;29;20119;-72
2021/01/20 16:48:24;;;;;;;2.97;1.15;;;9.30;99.90;;;;;;4910323;29;20060;-71
2021/01/20 16:50:50;;;;;;;1.95;1.15;;;9.30;99.90;;;;;;4910057;29;20049;-73
2021/01/20 16:53:16;;;;;;;2.15;1.08;;;9.30;99.90;;;;;;4910440;29;20052;-74
2021/01/20 16:55:42;;;;;;;2.90;1.23;;;9.30;99.90;;;;;;4910240;29;20056;-72
2021/01/20 16:58:09;;;;;;;3.33;1.70;;;9.30;99.90;;;;;;4909687;29;20116;-74
2021/01/20 17:00:35;;;;;;;1.52;1.13;;;9.20;99.90;;;;;;4909395;29;20064;-71
2021/01/20 17:03:00;;;;;;;6.38;1.50;;;9.20;99.90;;;;;;4926148;29;20109;-72
2021/01/20 17:05:26;;;;;;;1.67;1.08;;;9.20;99.90;;;;;;4910352;29;20062;-73
2021/01/20 17:07:52;;;;;;;3.00;1.88;;;9.20;99.90;;;;;;4909878;29;20056;-74
2021/01/20 17:10:21;;;;;;;3.40;1.55;;;9.20;99.90;;;;;;4927319;29;20047;-73
2021/01/20 17:12:50;;;;;;;1.50;0.95;;;9.20;99.90;;;;;;4928719;29;20024;-73
2021/01/20 17:15:17;;;;;;;3.13;1.00;;;9.20;99.90;;;;;;4928836;29;20449;-73
2021/01/20 17:17:43;;;;;;;4.40;1.83;;;9.20;99.90;;;;;;4908202;29;20500;-71
2021/01/20 17:20:09;;;;;;;5.97;1.88;;;9.20;99.90;;;;;;4890692;29;20036;-73
2021/01/20 17:22:36;;;;;;;2.03;1.00;;;9.20;99.90;;;;;;4923248;29;20040;-71
2021/01/20 17:25:03;;;;;;;3.85;1.55;;;9.20;99.90;;;;;;4926874;29;20032;-70
2021/01/20 17:27:28;;;;;;;6.70;2.63;;;9.10;99.90;;;;;;4909286;29;20537;-72
2021/01/20 17:29:54;;;;;;;6.03;2.42;;;9.10;99.90;;;;;;4909647;29;20032;-72
2021/01/20 17:32:19;;;;;;;4.80;2.50;;;9.10;99.90;;;;;;4926121;29;20031;-72
2021/01/20 17:34:45;;;;;;;6.78;3.50;;;9.10;99.90;;;;;;4911551;29;20612;-72
2021/01/20 17:37:11;;;;;;;4.72;1.40;;;9.10;99.90;;;;;;4928740;29;20110;-73
2021/01/20 17:39:37;;;;;;;4.07;2.10;;;9.00;99.90;;;;;;4927901;29;20701;-72
2021/01/20 17:42:02;;;;;;;3.15;1.60;;;9.00;99.90;;;;;;4928142;29;20056;-71
2021/01/20 17:44:28;;;;;;;3.75;1.77;;;9.00;99.90;;;;;;4928370;29;20039;-72
2021/01/20 17:46:54;;;;;;;2.92;1.35;;;9.00;99.90;;;;;;4927693;29;20035;-71
2021/01/20 17:49:20;;;;;;;2.90;1.38;;;9.00;99.90;;;;;;4928454;29;20063;-73
2021/01/20 17:51:45;;;;;;;1.38;1.20;;;9.10;99.90;;;;;;4928385;29;20056;-73
2021/01/20 17:54:11;;;;;;;3.70;1.27;;;9.00;99.90;;;;;;4927757;29;20051;-71
2021/01/20 17:56:36;;;;;;;2.72;1.38;;;9.00;99.90;;;;;;4911065;29;20411;-71
2021/01/20 17:59:02;;;;;;;2.55;1.35;;;9.00;99.90;;;;;;4920595;29;20082;-72
2021/01/20 18:01:27;;;;;;;2.10;1.00;;;9.00;99.90;;;;;;4918637;29;20044;-74
2021/01/20 18:03:53;;;;;;;1.83;1.05;;;9.00;99.90;;;;;;4926420;29;20040;-71
2021/01/20 18:06:19;;;;;;;2.85;1.52;;;9.00;99.90;;;;;;4919327;29;20037;-73
2021/01/20 18:08:46;;;;;;;2.20;1.10;;;8.90;99.90;;;;;;4908408;29;20036;-72
2021/01/20 18:11:12;;;;;;;1.48;0.63;;;9.00;99.90;;;;;;4907868;29;20913;-69
2021/01/20 18:13:37;;;;;;;1.85;0.98;;;8.90;99.90;;;;;;4908669;29;20036;-71
2021/01/20 18:16:03;;;;;;;5.82;1.35;;;8.90;99.90;;;;;;4908770;29;20029;-70
2021/01/20 18:18:29;;;;;;;1.55;0.98;;;9.00;99.90;;;;;;4913617;29;20033;-71
2021/01/20 18:20:55;;;;;;;4.45;1.15;;;9.00;99.90;;;;;;4891022;29;20056;-73
2021/01/20 18:23:20;;;;;;;1.55;1.00;;;9.00;99.90;;;;;;4892032;29;20033;-72
2021/01/20 18:25:46;;;;;;;2.22;1.20;;;8.90;99.90;;;;;;4909985;29;20039;-75
2021/01/20 18:28:12;;;;;;;3.50;1.27;;;9.00;99.90;;;;;;4908028;29;20040;-74
2021/01/20 18:30:39;;;;;;;3.33;1.60;;;8.90;99.90;;;;;;4907888;29;20141;-73
2021/01/20 18:33:05;;;;;;;15.40;1.70;;;8.90;99.90;;;;;;4904782;29;20063;-72
2021/01/20 18:35:31;;;;;;;1.90;1.05;;;8.90;99.90;;;;;;4907931;29;20044;-72
2021/01/20 18:37:58;;;;;;;2.78;1.38;;;8.90;99.90;;;;;;4910918;29;20048;-73
2021/01/20 18:40:24;;;;;;;2.38;1.35;;;8.90;99.90;;;;;;4911859;29;20080;-72
2021/01/20 18:42:50;;;;;;;1.17;1.08;;;8.90;99.90;;;;;;4911976;29;20027;-73
2021/01/20 18:45:16;;;;;;;3.35;1.15;;;8.90;99.90;;;;;;4912259;29;20084;-72
2021/01/20 18:47:44;;;;;;;3.33;1.33;;;8.90;99.90;;;;;;4912104;29;20594;-72
2021/01/20 18:50:11;;;;;;;2.90;1.17;;;9.00;99.90;;;;;;4911667;29;20044;-74
2021/01/20 18:52:40;;;;;;;3.55;1.25;;;9.00;99.90;;;;;;4912769;29;20029;-74
2021/01/20 18:55:06;;;;;;;1.27;0.93;;;9.00;99.90;;;;;;4895605;29;20052;-71
2021/01/20 18:57:35;;;;;;;6.50;1.10;;;9.00;99.90;;;;;;4913114;29;20036;-70
2021/01/20 19:00:01;;;;;;;3.67;1.05;;;9.00;99.90;;;;;;4911608;29;20088;-71
2021/01/20 19:02:26;;;;;;;4.95;1.30;;;9.00;99.90;;;;;;4911692;29;20088;-72
2021/01/20 19:04:52;;;;;;;3.53;1.10;;;9.00;99.90;;;;;;4911092;29;20033;-72
2021/01/20 19:07:24;;;;;;;3.05;1.20;;;9.00;99.90;;;;;;4911936;29;20033;-73
2021/01/20 19:09:50;;;;;;;8.07;1.73;;;9.00;99.90;;;;;;4913219;29;20040;-70
2021/01/20 19:12:17;;;;;;;2.38;1.27;;;8.90;99.90;;;;;;4920071;29;20104;-71
2021/01/20 19:14:45;;;;;;;4.15;1.90;;;8.90;99.90;;;;;;4911678;29;20032;-73
2021/01/20 19:17:11;;;;;;;4.82;1.38;;;8.90;99.90;;;;;;4911978;29;20021;-70
2021/01/20 19:19:37;;;;;;;3.60;0.85;;;8.90;99.90;;;;;;4915792;29;20398;-71
2021/01/20 19:22:04;;;;;;;2.72;1.75;;;8.90;99.90;;;;;;4926690;29;20036;-70
2021/01/20 19:24:30;;;;;;;1.20;0.82;;;8.90;99.90;;;;;;4911683;29;20080;-73
2021/01/20 19:26:56;;;;;;;1.20;0.73;;;8.90;99.90;;;;;;4911425;29;20032;-71
2021/01/20 19:29:22;;;;;;;2.72;1.27;;;8.90;99.90;;;;;;4918142;29;20024;-68
2021/01/20 19:31:47;;;;;;;6.03;1.52;;;8.80;99.90;;;;;;4917550;29;20119;-71
2021/01/20 19:34:13;;;;;;;10.15;1.77;;;8.80;99.90;;;;;;4929391;29;20040;-70
2021/01/20 19:36:39;;;;;;;2.08;1.13;;;8.80;99.90;;;;;;4911489;29;20032;-73
2021/01/20 19:39:09;;;;;;;1.75;1.00;;;8.80;99.90;;;;;;4922035;29;20036;-72
2021/01/20 19:41:35;;;;;;;2.05;1.10;;;8.80;99.90;;;;;;4909693;29;20047;-69
2021/01/20 19:44:01;;;;;;;1.88;1.00;;;8.70;99.90;;;;;;4921394;29;20119;-72
2021/01/20 19:46:27;;;;;;;3.90;1.17;;;8.70;99.90;;;;;;4893304;29;20394;-71
2021/01/20 19:48:53;;;;;;;0.90;0.80;;;8.80;99.90;;;;;;4925462;29;20028;-72
2021/01/20 19:51:19;;;;;;;2.67;1.35;;;8.80;99.90;;;;;;4915947;29;20033;-72
2021/01/20 19:53:45;;;;;;;1.90;1.08;;;8.80;99.90;;;;;;4910622;29;20511;-70
2021/01/20 19:56:11;;;;;;;8.50;1.45;;;8.80;99.90;;;;;;4910825;29;20052;-70
2021/01/20 19:58:37;;;;;;;1.75;1.10;;;8.80;99.90;;;;;;4910502;29;20128;-72
2021/01/20 20:01:02;;;;;;;1.60;0.88;;;8.80;99.90;;;;;;4909691;29;20063;-69
2021/01/20 20:03:28;;;;;;;4.18;1.10;;;8.80;99.90;;;;;;4910564;29;20035;-70
2021/01/20 20:05:54;;;;;;;2.92;1.20;;;8.80;99.90;;;;;;4910636;29;20036;-72
2021/01/20 20:08:20;;;;;;;2.22;1.48;;;8.80;99.90;;;;;;4910577;29;20029;-72
2021/01/20 20:10:46;;;;;;;2.70;1.27;;;8.80;99.90;;;;;;4925095;29;20037;-71
2021/01/20 20:13:12;;;;;;;3.60;1.33;;;8.80;99.90;;;;;;4909931;29;20113;-69
2021/01/20 20:15:38;;;;;;;1.90;1.20;;;8.80;99.90;;;;;;4910189;29;20056;-70
2021/01/20 20:18:06;;;;;;;2.38;1.17;;;8.80;99.90;;;;;;4910315;29;20036;-69
2021/01/20 20:20:32;;;;;;;3.17;1.17;;;8.80;99.90;;;;;;4910274;29;20039;-70
2021/01/20 20:22:57;;;;;;;1.95;1.35;;;8.80;99.90;;;;;;4910245;29;20384;-70
2021/01/20 20:25:23;;;;;;;5.30;1.60;;;8.80;99.90;;;;;;4910507;29;20052;-71
2021/01/20 20:27:48;;;;;;;2.40;1.25;;;8.80;99.90;;;;;;4910006;29;20036;-72
2021/01/20 20:30:14;;;;;;;2.13;1.20;;;8.80;99.90;;;;;;4892042;29;20104;-71
2021/01/20 20:32:40;;;;;;;2.10;1.40;;;8.80;99.90;;;;;;4910016;29;20039;-70
2021/01/20 20:35:07;;;;;;;2.45;1.65;;;8.70;99.90;;;;;;4910084;29;20075;-71
2021/01/20 20:37:32;;;;;;;3.25;1.08;;;8.70;99.90;;;;;;4910443;29;20032;-71
2021/01/20 20:39:58;;;;;;;2.72;1.23;;;8.70;99.90;;;;;;4910462;29;20025;-70
2021/01/20 20:42:24;;;;;;;1.42;0.95;;;8.70;99.90;;;;;;4910326;29;20484;-70